首页
METAR-TAF:

METAR-TAF

机场 :

Beaufort, 南卡罗来纳州, 美国

纬度: 32-29-37N, 经度: 080-42-11W, 海拔: 11米

当前天气观测

该预报发布于14分钟前的01:56 UTC
风速5节,风向南转西南
温度 26°C
湿度 94%
气压 1017 hPa
能見度: 16.1公里
天空无云

METAR: KNBC 220156Z 21005KT 10SM CLR 26/25 A3003 RMK AO2 RAE04 TSE07 SLP169 P0000 T02560250

时间: 22:10 (02:10 UTC)

预报

预报有效从21日的 21点(UTC)到 22日的 21点(UTC)
风速10节,风向西南
能见度10公里或以上
多云层高于4000英尺
多云层高于20000英尺
成为
从 22日的 00点(UTC)到 22日的 02点(UTC)
风速10节,风向南转西南
能见度10公里或以上
散云层高于4000英尺, 积雨云.
多云层高于12000英尺
附近有雷暴
从 22日的 0600点(UTC)
风速5节,风向多变
能见度10公里或以上
散云层高于6000英尺
多云层高于16000英尺
短暂存在
从 22日的 18点(UTC)到 22日的 21点(UTC)
风速10节,风向西南
能見度: 4800
多云层高于3000英尺, 积雨云.
多云层高于8000英尺
雷暴, 雨, 轻雾

TAF: KNBC 2121/2221 22010KT 9999 BKN040 BKN200 QNH2997INS BECMG 2200/2202 20010KT 9999 VCTS SCT040CB BKN120 QNH2993INS FM220600 VRB05KT 9999 SCT060 BKN160 QNH2987INS TEMPO 2218/2221 23010KT 4800 TSRA BR BKN030CB BKN080 T24/2209Z T33/2221Z

超过4000个机场的气象观测和天气预报(METAR&TAF报告)。

可查询的气象台以黄色和红色小点在地图上表示。

将鼠标移到小点上方,可查看气象台名称。

然后点击查看天气观测和预报。

如需切换地图:点击带黑十字的绿色按钮放大地图;点击带横线的绿色按钮缩小地图;或者点击绿色箭头查看邻近地区的地图。


METAR-TAF: